Theodore, Canada
Current Conditions -  °F | °C
As of 4:00 AM on Sunday 21 Dec 2014 (Local Time) from CYQV Reporting Station
Haze Haze  
Wind Chill: 20°   Ceiling: 400
Heat Index: 27°   Visibility: 1.5mi
Dew Point: 27°   Wind: 6mph
Humidity: 100%   Direction: 160°SSE
Pressure: 29.57"   Gusts: NA
Location:  51.43°N, 102.92°W
Report Text: CYQV 211000Z AUTO 16005KT 1 1/2SM BR OVC004 M03/M03 A2957 RMK SLP043
Loading
Personal Weather Stations






























Interactive Weather Map New forecast layout! Learn more

10-Day Weather Forecast

Advertisements
Track Severe Weather on mobile